Terminal Aerodrome Forecast
Issued by NWS

Home | Current Version | Previous Version | Graphics & Text | Print | Product List | Glossary On
Versions: 1 2 3 4 5 6 7 8 9 10 11 12 13 14 15
000
FTUS43 KICT 222216 AAA
TAFCNU
TAF AMD
KCNU 222216Z 2222/2318 20010KT P6SM -TSRA SCT080CB
     FM230000 18007KT P6SM SCT200
     FM230800 12007KT P6SM SCT200=

USA.gov is the U.S. government's official web portal to all federal, state and local government web resources and services.